Time;durP1;ratioP1;P1;durP2;ratioP2;P2;SDS_P1;SDS_P2;PMS_P1;PMS_P2;Temp;Humidity;BMP_temperature;BMP_pressure;BME280_temperature;BME280_humidity;BME280_pressure;Samples;Min_cycle;Max_cycle;Signal;HPM_P1;HPM_P2
2021/04/06 00:01:43;;;;;;;25.38;17.52;;;;;;;5.16;65.62;93893.28;2979830;40;20120;-85
2021/04/06 00:03:47;;;;;;;26.02;17.60;;;;;;;5.20;65.25;93888.63;2988920;39;20412;-83
2021/04/06 00:05:50;;;;;;;26.13;17.73;;;;;;;5.24;65.26;93880.41;2989607;39;20040;-87
2021/04/06 00:07:53;;;;;;;29.27;18.33;;;;;;;5.25;65.13;93879.44;2989244;39;20071;-84
2021/04/06 00:09:59;;;;;;;32.85;23.45;;;;;;;4.97;65.74;93877.81;2994758;39;20076;-85
2021/04/06 00:12:04;;;;;;;31.90;23.48;;;;;;;4.90;66.10;93881.03;2981325;39;20048;-85
2021/04/06 00:14:06;;;;;;;31.52;21.30;;;;;;;4.92;65.86;93884.28;2972508;40;20339;-85
2021/04/06 00:16:08;;;;;;;27.23;19.92;;;;;;;4.99;65.95;93873.31;2980946;39;20079;-86
2021/04/06 00:18:10;;;;;;;23.85;17.58;;;;;;;4.81;66.15;93875.88;2990635;39;20071;-87
2021/04/06 00:20:12;;;;;;;23.48;17.33;;;;;;;4.81;66.37;93868.91;2981550;40;20052;-85
2021/04/06 00:22:16;;;;;;;25.95;19.02;;;;;;;4.82;67.00;93872.31;2972459;40;20037;-83
2021/04/06 00:24:19;;;;;;;23.95;17.52;;;;;;;4.87;67.23;93855.34;2989976;39;20393;-83
2021/04/06 00:26:21;;;;;;;23.80;17.35;;;;;;;5.01;66.67;93850.63;2989295;39;20393;-84
2021/04/06 00:28:27;;;;;;;23.13;16.08;;;;;;;5.06;66.28;93853.63;2990104;39;20056;-83
2021/04/06 00:30:30;;;;;;;24.67;17.33;;;;;;;5.07;65.44;93848.25;2972761;40;20440;-83
2021/04/06 00:32:32;;;;;;;23.33;16.45;;;;;;;5.13;65.44;93841.66;2968229;40;20313;-73
2021/04/06 00:34:34;;;;;;;21.70;14.75;;;;;;;5.17;64.88;93848.22;2984972;39;20055;-71
2021/04/06 00:36:36;;;;;;;23.92;15.23;;;;;;;5.13;65.03;93844.28;2980172;39;20424;-72
2021/04/06 00:38:40;;;;;;;18.67;13.57;;;;;;;5.13;64.68;93833.88;2990448;39;20166;-72
2021/04/06 00:40:43;;;;;;;19.23;14.40;;;;;;;5.17;64.93;93826.63;2974866;39;20070;-72
2021/04/06 00:42:45;;;;;;;17.63;13.45;;;;;;;5.13;65.07;93828.69;2982964;39;20055;-71
2021/04/06 00:44:56;;;;;;;22.15;13.00;;;;;;;5.11;65.14;93828.03;2975608;39;20048;-71
2021/04/06 00:46:57;;;;;;;19.58;14.02;;;;;;;5.15;65.28;93820.75;2983248;39;20079;-71
2021/04/06 00:48:59;;;;;;;20.05;13.40;;;;;;;5.16;65.41;93823.19;2984576;39;20059;-72
2021/04/06 00:51:13;;;;;;;18.85;13.30;;;;;;;5.08;64.90;93821.34;2983545;39;20048;-85
2021/04/06 00:53:14;;;;;;;19.67;13.30;;;;;;;4.76;65.80;93806.25;2992833;39;20062;-86
2021/04/06 00:55:17;;;;;;;19.52;13.60;;;;;;;4.67;66.47;93809.72;2999344;39;20051;-84
2021/04/06 00:57:19;;;;;;;20.05;13.52;;;;;;;4.55;67.03;93792.72;2982695;39;20404;-83
2021/04/06 00:59:23;;;;;;;20.50;13.00;;;;;;;4.47;67.55;93793.44;2971690;40;20044;-85
2021/04/06 01:01:43;;;;;;;20.45;14.35;;;;;;;4.18;68.36;93799.56;2981972;40;20068;-86
2021/04/06 01:03:46;;;;;;;21.00;15.18;;;;;;;3.48;70.83;93796.47;2990392;39;20119;-84
2021/04/06 01:06:00;;;;;;;21.80;15.23;;;;;;;3.19;72.30;93799.88;2985817;40;20036;-82
2021/04/06 01:08:06;;;;;;;22.40;14.20;;;;;;;3.04;72.97;93803.84;3001778;39;20095;-85
2021/04/06 01:10:07;;;;;;;18.42;13.15;;;;;;;3.00;73.16;93799.88;3000786;39;20059;-82
2021/04/06 01:12:10;;;;;;;21.02;14.18;;;;;;;2.89;74.32;93802.59;2985185;39;20034;-84
2021/04/06 01:14:16;;;;;;;20.92;13.73;;;;;;;2.99;73.35;93806.00;2993961;39;20040;-85
2021/04/06 01:16:18;;;;;;;21.65;14.65;;;;;;;3.16;73.21;93807.94;2990383;39;20039;-86
2021/04/06 01:18:20;;;;;;;17.50;12.95;;;;;;;3.36;72.71;93802.75;2979932;40;20041;-85
2021/04/06 01:20:25;;;;;;;19.85;13.90;;;;;;;3.35;71.84;93795.94;2987881;39;20039;-85
2021/04/06 01:22:28;;;;;;;21.75;13.77;;;;;;;3.34;72.15;93796.91;2971549;40;20051;-84
2021/04/06 01:24:30;;;;;;;17.23;12.43;;;;;;;3.55;71.73;93787.19;2982240;39;20069;-86
2021/04/06 01:26:32;;;;;;;20.77;13.20;;;;;;;3.78;71.23;93776.50;2988515;39;20553;-85
2021/04/06 01:28:33;;;;;;;20.75;13.95;;;;;;;3.84;70.45;93778.53;2972610;40;20045;-86
2021/04/06 01:30:50;;;;;;;18.58;12.80;;;;;;;3.99;70.00;93779.72;2990564;39;20126;-85
2021/04/06 01:32:54;;;;;;;17.40;13.25;;;;;;;4.12;69.57;93778.59;2983095;39;20080;-86
2021/04/06 01:34:56;;;;;;;18.83;13.35;;;;;;;4.25;69.03;93777.28;2970784;40;20061;-85
2021/04/06 01:36:58;;;;;;;25.30;14.02;;;;;;;4.40;68.35;93776.81;2970374;39;20113;-71
2021/04/06 01:38:59;;;;;;;21.67;13.48;;;;;;;4.48;67.90;93777.72;2971807;39;20157;-71
2021/04/06 01:41:01;;;;;;;18.45;13.40;;;;;;;4.57;67.49;93770.84;2976603;39;20060;-73
2021/04/06 01:43:03;;;;;;;23.90;13.15;;;;;;;4.61;67.13;93771.38;2976396;39;20051;-73
2021/04/06 01:45:08;;;;;;;18.90;13.18;;;;;;;4.42;67.95;93770.53;2975439;39;20150;-71
2021/04/06 01:47:13;;;;;;;19.05;13.32;;;;;;;4.46;67.77;93777.06;2975239;39;20054;-72
2021/04/06 01:49:18;;;;;;;18.38;13.07;;;;;;;4.54;67.90;93780.69;2983293;39;20063;-71
2021/04/06 01:51:21;;;;;;;18.80;13.50;;;;;;;4.59;67.70;93775.91;2967484;39;20488;-71
2021/04/06 01:53:23;;;;;;;19.52;13.27;;;;;;;4.60;67.52;93774.94;2975892;39;20349;-72
2021/04/06 01:55:32;;;;;;;18.05;12.00;;;;;;;4.64;66.87;93774.50;2974114;39;20046;-72
2021/04/06 01:57:40;;;;;;;19.70;12.07;;;;;;;4.65;67.08;93773.53;2974796;39;20074;-71
2021/04/06 01:59:46;;;;;;;15.13;11.63;;;;;;;4.68;67.06;93767.25;2974033;39;20048;-71
2021/04/06 02:01:51;;;;;;;16.48;12.15;;;;;;;4.71;67.00;93766.94;2975725;39;20157;-72
2021/04/06 02:04:01;;;;;;;15.52;11.68;;;;;;;4.77;66.59;93768.13;2967052;40;20056;-70
2021/04/06 02:06:04;;;;;;;17.08;11.40;;;;;;;4.83;65.80;93768.38;2967020;40;20067;-70
2021/04/06 02:08:10;;;;;;;15.63;11.13;;;;;;;4.84;66.35;93761.38;2976218;39;20109;-71
2021/04/06 02:10:13;;;;;;;18.25;12.38;;;;;;;4.82;66.11;93761.56;2985235;39;20086;-83
2021/04/06 02:12:19;;;;;;;20.05;13.00;;;;;;;4.74;66.82;93758.06;2979535;40;20125;-84
2021/04/06 02:14:22;;;;;;;16.25;12.35;;;;;;;4.67;66.95;93752.66;2977307;39;20330;-72
2021/04/06 02:16:24;;;;;;;20.13;12.23;;;;;;;4.69;66.50;93748.13;2974428;39;20048;-70
2021/04/06 02:18:28;;;;;;;17.73;12.48;;;;;;;4.68;66.42;93743.91;2974751;39;20120;-72
2021/04/06 02:20:29;;;;;;;16.13;12.25;;;;;;;4.76;66.11;93756.16;2988633;39;20059;-82
2021/04/06 02:22:31;;;;;;;15.98;11.15;;;;;;;4.78;66.69;93752.44;2985540;40;20028;-83
2021/04/06 02:24:40;;;;;;;14.10;10.75;;;;;;;4.82;66.35;93746.00;2978406;39;20376;-83
2021/04/06 02:26:42;;;;;;;17.52;11.98;;;;;;;4.86;66.38;93744.75;2977916;40;20047;-86
2021/04/06 02:28:43;;;;;;;16.10;11.70;;;;;;;4.72;66.31;93753.03;2978676;40;20440;-84
2021/04/06 02:30:56;;;;;;;15.93;11.80;;;;;;;4.45;66.66;93759.88;2978140;40;20080;-84
2021/04/06 02:33:01;;;;;;;16.23;11.27;;;;;;;4.45;66.96;93746.06;2976231;40;20456;-85
2021/04/06 02:35:12;;;;;;;15.50;11.00;;;;;;;4.50;67.27;93756.84;2979854;40;20051;-83
2021/04/06 02:37:19;;;;;;;17.67;10.93;;;;;;;4.54;67.74;93749.56;2974993;39;20064;-82
2021/04/06 02:39:20;;;;;;;16.30;11.95;;;;;;;4.53;67.21;93745.34;2981447;39;20063;-85
2021/04/06 02:41:21;;;;;;;16.10;11.70;;;;;;;4.58;67.28;93748.31;2984272;39;20095;-86
2021/04/06 02:43:23;;;;;;;15.45;10.73;;;;;;;4.63;66.73;93757.31;2983111;39;20032;-84
2021/04/06 02:45:29;;;;;;;14.70;11.15;;;;;;;4.66;66.73;93758.78;2966859;40;20056;-72
2021/04/06 02:47:32;;;;;;;15.57;11.25;;;;;;;4.72;66.74;93764.22;2981512;39;20067;-71
2021/04/06 02:49:33;;;;;;;19.08;11.80;;;;;;;4.71;66.18;93756.56;2973819;39;20064;-71
2021/04/06 02:51:39;;;;;;;14.70;11.20;;;;;;;4.71;66.71;93753.97;2972614;39;20475;-72
2021/04/06 02:53:41;;;;;;;19.97;11.63;;;;;;;4.70;66.70;93752.34;2979875;39;20091;-71
2021/04/06 02:55:42;;;;;;;17.42;11.73;;;;;;;4.66;66.77;93743.22;2974266;39;20165;-72
2021/04/06 02:57:49;;;;;;;15.35;11.57;;;;;;;4.66;66.51;93745.81;2975478;39;20086;-70
2021/04/06 02:59:52;;;;;;;16.13;11.55;;;;;;;4.64;66.68;93738.16;2973276;39;20734;-71
2021/04/06 03:01:58;;;;;;;14.40;11.00;;;;;;;4.62;66.81;93747.88;2972310;39;20048;-72
2021/04/06 03:03:59;;;;;;;19.88;12.85;;;;;;;4.66;66.79;93735.44;2974924;39;20048;-72
2021/04/06 03:06:05;;;;;;;16.10;11.38;;;;;;;4.63;66.38;93740.94;2976949;39;20405;-71
2021/04/06 03:08:07;;;;;;;16.95;11.35;;;;;;;4.65;66.21;93742.41;2966585;40;20068;-72
2021/04/06 03:10:17;;;;;;;16.67;12.45;;;;;;;4.69;66.78;93735.16;2982727;39;20136;-85
2021/04/06 03:12:19;;;;;;;16.00;11.70;;;;;;;4.72;66.54;93747.81;2978998;40;20421;-85
2021/04/06 03:14:22;;;;;;;19.02;12.98;;;;;;;4.74;66.35;93743.31;2986559;39;20439;-84
2021/04/06 03:16:24;;;;;;;31.90;22.45;;;;;;;4.71;66.84;93741.00;2981098;39;20030;-83
2021/04/06 03:18:33;;;;;;;18.80;14.10;;;;;;;4.68;66.49;93738.72;2988303;39;20036;-84
2021/04/06 03:20:36;;;;;;;19.83;12.77;;;;;;;4.68;66.83;93733.50;2986760;39;20056;-84
2021/04/06 03:22:37;;;;;;;19.00;11.52;;;;;;;4.68;66.16;93730.94;2977362;39;20305;-71
2021/04/06 03:24:39;;;;;;;15.77;11.32;;;;;;;4.67;66.62;93739.69;2972433;39;20480;-72
2021/04/06 03:26:40;;;;;;;16.48;11.50;;;;;;;4.66;66.66;93732.84;2974534;39;20074;-74
2021/04/06 03:28:42;;;;;;;18.00;12.25;;;;;;;4.67;66.10;93734.50;2974592;39;20428;-71
2021/04/06 03:30:44;;;;;;;15.77;11.65;;;;;;;4.65;66.38;93731.22;2965740;40;20051;-72
2021/04/06 03:32:45;;;;;;;18.48;12.18;;;;;;;4.61;66.68;93732.47;2975668;39;20496;-72
2021/04/06 03:34:47;;;;;;;16.27;12.38;;;;;;;4.64;66.63;93729.59;2983556;39;20063;-70
2021/04/06 03:36:48;;;;;;;20.88;12.43;;;;;;;4.39;67.61;93737.13;2983644;39;20333;-71
2021/04/06 03:38:55;;;;;;;21.88;13.35;;;;;;;4.27;67.77;93736.47;2984472;39;20456;-72
2021/04/06 03:40:56;;;;;;;19.60;12.50;;;;;;;4.23;68.47;93726.53;2985314;39;20062;-72
2021/04/06 03:43:17;;;;;;;16.85;12.50;;;;;;;4.25;68.04;93725.44;2980341;39;20043;-73
2021/04/06 03:45:19;;;;;;;21.65;12.10;;;;;;;4.32;68.14;93725.66;2979813;39;20108;-70
2021/04/06 03:47:20;;;;;;;17.08;12.18;;;;;;;4.40;67.95;93712.81;2983542;39;20433;-72
2021/04/06 03:49:24;;;;;;;50.17;29.60;;;;;;;4.45;67.83;93714.94;2972420;39;20084;-73
2021/04/06 03:51:29;;;;;;;43.47;26.88;;;;;;;4.50;67.25;93715.34;2984995;39;20039;-72
2021/04/06 03:53:40;;;;;;;20.17;12.82;;;;;;;4.55;67.25;93723.50;2980476;39;20055;-71
2021/04/06 03:55:43;;;;;;;18.35;12.98;;;;;;;4.49;67.23;93714.50;2972201;39;20588;-71
2021/04/06 03:57:48;;;;;;;18.10;12.98;;;;;;;4.37;68.03;93725.25;2976353;39;20374;-71
2021/04/06 03:59:50;;;;;;;20.83;13.75;;;;;;;4.19;68.74;93725.19;2967301;39;20052;-72
2021/04/06 04:01:51;;;;;;;18.55;13.45;;;;;;;4.14;68.78;93730.00;2971302;39;20100;-73
2021/04/06 04:03:54;;;;;;;18.58;13.18;;;;;;;3.92;69.53;93719.06;2984295;39;20048;-72
2021/04/06 04:05:55;;;;;;;20.05;13.63;;;;;;;3.79;69.87;93715.97;2966736;40;20275;-72
2021/04/06 04:07:57;;;;;;;19.73;14.10;;;;;;;3.73;70.41;93721.72;2968512;39;20050;-71
2021/04/06 04:09:58;;;;;;;21.13;13.77;;;;;;;3.82;69.66;93724.25;2970722;39;20047;-71
2021/04/06 04:11:59;;;;;;;19.63;14.27;;;;;;;3.93;69.29;93723.28;2980305;39;20052;-71
2021/04/06 04:14:01;;;;;;;19.00;13.55;;;;;;;4.04;68.98;93730.88;2983145;39;20062;-73
2021/04/06 04:16:02;;;;;;;20.60;13.88;;;;;;;4.16;68.58;93725.50;2976127;39;20370;-73
2021/04/06 04:18:04;;;;;;;18.23;13.20;;;;;;;4.24;68.93;93730.78;2975941;39;20060;-72
2021/04/06 04:20:10;;;;;;;18.15;13.18;;;;;;;4.37;68.47;93725.25;2974723;39;20047;-72
2021/04/06 04:22:11;;;;;;;19.65;14.80;;;;;;;4.44;67.82;93734.88;2971553;39;20084;-71
2021/04/06 04:24:12;;;;;;;25.60;14.52;;;;;;;4.47;67.44;93726.00;2967396;39;20053;-72
2021/04/06 04:26:13;;;;;;;24.95;15.63;;;;;;;4.38;67.67;93722.50;2982032;39;20084;-74
2021/04/06 04:28:15;;;;;;;24.88;18.67;;;;;;;4.33;67.86;93729.09;2982372;39;20321;-71
2021/04/06 04:30:34;;;;;;;21.90;15.75;;;;;;;4.32;67.76;93730.84;2976651;39;20092;-74
2021/04/06 04:32:36;;;;;;;19.80;14.82;;;;;;;4.42;67.76;93733.41;2975180;39;20120;-72
2021/04/06 04:34:37;;;;;;;22.88;14.90;;;;;;;4.50;67.40;93736.91;2980993;39;20080;-71
2021/04/06 04:36:38;;;;;;;71.38;45.65;;;;;;;4.59;67.18;93718.84;2978678;39;20506;-72
2021/04/06 04:38:39;;;;;;;45.60;31.23;;;;;;;4.59;67.60;93724.03;2974123;39;20075;-72
2021/04/06 04:40:42;;;;;;;23.33;16.75;;;;;;;4.62;67.07;93714.16;2976659;39;20059;-71
2021/04/06 04:42:43;;;;;;;27.33;15.35;;;;;;;4.65;67.08;93718.25;2976517;39;20083;-72
2021/04/06 04:44:44;;;;;;;22.85;15.15;;;;;;;4.66;67.09;93720.69;2987947;39;20147;-71
2021/04/06 04:46:46;;;;;;;21.60;15.02;;;;;;;4.70;67.39;93719.44;2989227;39;20080;-85
2021/04/06 04:48:47;;;;;;;20.08;14.70;;;;;;;4.80;66.72;93713.38;2995525;39;20052;-84
2021/04/06 04:50:48;;;;;;;24.10;14.88;;;;;;;4.80;66.49;93716.78;2979379;40;20417;-86
2021/04/06 04:52:50;;;;;;;22.10;15.07;;;;;;;4.87;66.16;93711.81;2980589;40;20044;-89
2021/04/06 04:54:52;;;;;;;20.27;15.00;;;;;;;4.82;66.05;93714.84;2989244;39;20036;-85
2021/04/06 04:56:53;;;;;;;19.77;15.65;;;;;;;4.83;66.14;93713.88;2979531;40;20051;-86
2021/04/06 04:58:54;;;;;;;21.63;15.48;;;;;;;4.90;66.06;93712.34;2988997;39;20028;-85
2021/04/06 05:00:56;;;;;;;23.70;14.88;;;;;;;4.97;66.36;93711.72;2988530;39;20047;-87
2021/04/06 05:02:58;;;;;;;21.55;15.70;;;;;;;5.00;66.20;93706.25;2987630;39;20039;-88
2021/04/06 05:04:59;;;;;;;27.42;16.67;;;;;;;4.85;66.09;93706.75;2989282;39;20065;-87
2021/04/06 05:07:00;;;;;;;20.70;15.52;;;;;;;4.90;66.59;93712.34;2988657;39;20047;-90
2021/04/06 05:09:03;;;;;;;23.60;16.30;;;;;;;4.99;66.27;93714.97;2989409;39;20040;-86
2021/04/06 05:11:08;;;;;;;20.17;16.20;;;;;;;5.09;65.86;93708.75;2989284;39;20031;-86
2021/04/06 05:13:10;;;;;;;22.63;16.13;;;;;;;5.14;65.13;93713.47;2988782;39;20028;-86
2021/04/06 05:15:11;;;;;;;23.98;17.63;;;;;;;5.23;65.64;93709.19;2979446;40;20080;-87
2021/04/06 05:17:13;;;;;;;19.70;16.27;;;;;;;5.30;65.37;93705.81;2988359;39;20048;-86
2021/04/06 05:19:15;;;;;;;26.30;16.88;;;;;;;5.39;64.71;93711.09;2979022;39;20051;-87
2021/04/06 05:21:16;;;;;;;26.45;19.67;;;;;;;5.36;65.14;93706.22;2989978;39;20028;-86
2021/04/06 05:23:17;;;;;;;34.03;23.55;;;;;;;5.21;66.01;93704.13;2985193;39;20067;-86
2021/04/06 05:25:18;;;;;;;23.10;17.70;;;;;;;5.27;65.30;93707.91;2989244;39;20060;-86
2021/04/06 05:27:20;;;;;;;23.02;17.58;;;;;;;5.39;65.02;93705.88;2978940;40;20080;-85
2021/04/06 05:29:21;;;;;;;22.48;17.60;;;;;;;5.48;64.83;93705.78;2979910;40;20039;-84
2021/04/06 05:31:23;;;;;;;22.65;16.58;;;;;;;5.56;63.75;93704.22;2988805;39;20047;-82
2021/04/06 05:33:24;;;;;;;23.52;17.60;;;;;;;5.64;63.67;93701.66;2989550;39;20132;-89
2021/04/06 05:35:26;;;;;;;23.15;16.63;;;;;;;5.63;64.16;93703.44;2991604;39;20124;-88
2021/04/06 05:37:27;;;;;;;22.35;16.67;;;;;;;5.59;64.25;93712.50;2991378;39;20058;-88
2021/04/06 05:39:28;;;;;;;23.73;16.25;;;;;;;5.68;64.34;93696.00;2982365;39;20043;-86
2021/04/06 05:41:29;;;;;;;25.85;16.95;;;;;;;5.73;63.54;93704.16;2989694;39;20051;-89
2021/04/06 05:43:31;;;;;;;24.38;17.33;;;;;;;5.13;65.01;93707.47;2986461;39;20397;-87
2021/04/06 05:45:33;;;;;;;24.50;18.02;;;;;;;5.02;65.93;93699.13;2980734;39;20060;-87
2021/04/06 05:47:40;;;;;;;24.08;17.60;;;;;;;5.01;67.11;93697.47;2981034;39;20044;-86
2021/04/06 05:49:41;;;;;;;24.25;17.08;;;;;;;5.01;66.58;93700.06;2984419;39;20067;-86
2021/04/06 05:51:43;;;;;;;22.15;16.70;;;;;;;5.16;66.61;93695.97;3001521;39;20041;-86
2021/04/06 05:53:45;;;;;;;24.58;17.25;;;;;;;5.37;66.08;93690.44;2985625;39;20043;-87
2021/04/06 05:55:46;;;;;;;22.90;16.88;;;;;;;5.55;65.17;93693.00;2988672;39;20031;-85
2021/04/06 05:57:48;;;;;;;24.38;17.33;;;;;;;5.73;64.84;93698.94;2975461;39;20132;-86
2021/04/06 05:59:49;;;;;;;49.05;35.42;;;;;;;5.90;64.71;93691.25;2982142;39;20056;-86
2021/04/06 06:01:53;;;;;;;70.32;44.58;;;;;;;6.08;63.81;93692.00;2990145;39;20044;-87
2021/04/06 06:03:55;;;;;;;25.23;18.23;;;;;;;6.27;63.49;93685.72;3000710;39;20059;-85
2021/04/06 06:05:56;;;;;;;23.10;16.13;;;;;;;6.44;62.79;93689.19;2994379;39;20435;-86
2021/04/06 06:07:58;;;;;;;23.42;14.88;;;;;;;6.54;61.72;93676.06;2994095;39;20036;-87
2021/04/06 06:10:24;;;;;;;19.13;14.30;;;;;;;6.59;61.75;93673.78;2980241;40;20071;-86
2021/04/06 06:12:28;;;;;;;18.25;13.88;;;;;;;6.54;62.23;93670.88;2980200;40;20044;-86
2021/04/06 06:14:35;;;;;;;22.65;13.35;;;;;;;6.49;61.76;93673.09;2982005;40;20060;-85
2021/04/06 06:16:41;;;;;;;17.15;13.05;;;;;;;6.41;61.58;93675.69;2981899;39;20040;-86
2021/04/06 06:18:58;;;;;;;18.60;12.65;;;;;;;6.52;61.65;93673.63;2974850;39;20044;-88
2021/04/06 06:21:00;;;;;;;16.05;12.23;;;;;;;6.53;61.28;93667.41;2992515;39;20051;-86
2021/04/06 06:23:21;;;;;;;20.02;12.95;;;;;;;6.63;62.37;93669.09;2986025;39;20036;-85
2021/04/06 06:25:22;;;;;;;18.98;13.00;;;;;;;6.70;61.65;93678.69;2986531;39;20385;-85
2021/04/06 06:27:38;;;;;;;17.58;12.95;;;;;;;6.81;61.72;93677.56;2989674;39;20058;-86
2021/04/06 06:29:40;;;;;;;18.92;13.02;;;;;;;6.96;61.58;93672.53;2980377;39;20048;-85
2021/04/06 06:31:44;;;;;;;17.08;13.27;;;;;;;7.03;60.60;93662.28;2980575;39;20340;-85
2021/04/06 06:33:45;;;;;;;;;;;;;;;7.08;60.69;93662.63;2989326;39;20353;-87
2021/04/06 06:35:54;;;;;;;18.15;12.80;;;;;;;7.12;60.24;93663.88;2989747;39;20020;-87
2021/04/06 06:37:56;;;;;;;19.05;13.02;;;;;;;7.29;60.21;93665.53;2989145;39;20052;-86
2021/04/06 06:40:01;;;;;;;14.32;11.68;;;;;;;7.43;59.82;93666.66;2988343;39;20040;-87
2021/04/06 06:42:08;;;;;;;17.08;12.35;;;;;;;7.53;59.30;93662.06;2979890;39;20323;-84
2021/04/06 06:44:10;;;;;;;13.52;11.77;;;;;;;7.63;58.50;93661.06;2991114;39;20028;-86
2021/04/06 06:46:28;;;;;;;18.65;11.88;;;;;;;7.61;58.43;93652.59;2990420;39;20059;-86
2021/04/06 06:48:33;;;;;;;16.40;12.60;;;;;;;7.61;59.08;93658.63;2988080;39;20062;-87
2021/04/06 06:50:48;;;;;;;19.33;13.23;;;;;;;7.42;59.39;93653.78;2978038;39;20064;-85
2021/04/06 06:52:54;;;;;;;21.95;12.68;;;;;;;7.53;59.53;93646.44;2985183;39;20036;-86
2021/04/06 06:55:02;;;;;;;16.85;12.05;;;;;;;7.67;59.12;93651.94;2999494;39;20063;-85
2021/04/06 06:57:13;;;;;;;17.13;12.18;;;;;;;7.66;59.39;93648.53;2989984;39;20047;-87
2021/04/06 06:59:15;;;;;;;24.80;13.75;;;;;;;7.67;59.55;93644.13;2999164;39;20063;-85
2021/04/06 07:01:25;;;;;;;16.80;12.60;;;;;;;7.84;58.75;93637.88;2991022;39;20088;-87
2021/04/06 07:03:26;;;;;;;16.23;12.70;;;;;;;7.97;58.16;93643.38;2981157;39;20037;-86
2021/04/06 07:05:29;;;;;;;13.68;11.38;;;;;;;8.12;58.44;93635.63;2973331;39;20457;-84
2021/04/06 07:07:30;;;;;;;14.50;11.77;;;;;;;8.13;57.75;93629.47;2981472;40;20393;-86
2021/04/06 07:09:32;;;;;;;16.30;11.15;;;;;;;8.15;57.63;93635.31;2984839;40;20335;-88
2021/04/06 07:11:33;;;;;;;14.98;11.10;;;;;;;8.02;57.63;93637.63;2988749;40;20087;-88
2021/04/06 07:13:35;;;;;;;22.65;10.32;;;;;;;8.10;57.84;93637.59;2989200;40;20065;-88
2021/04/06 07:15:41;;;;;;;15.00;10.90;;;;;;;8.25;57.74;93634.28;2994276;39;20035;-87
2021/04/06 07:17:44;;;;;;;20.63;12.43;;;;;;;8.31;57.93;93631.00;2997369;39;20019;-88
2021/04/06 07:19:45;;;;;;;19.95;10.73;;;;;;;8.29;57.41;93632.97;2997431;39;20031;-85
2021/04/06 07:21:48;;;;;;;13.43;10.10;;;;;;;8.45;56.63;93627.66;2988824;39;20032;-87
2021/04/06 07:24:10;;;;;;;15.63;9.18;;;;;;;8.49;56.99;93628.94;2991523;39;20040;-87
2021/04/06 07:26:14;;;;;;;12.27;9.73;;;;;;;8.64;56.51;93628.22;2979970;39;20047;-87
2021/04/06 07:28:16;;;;;;;9.70;8.05;;;;;;;8.73;55.48;93633.22;2996411;39;20112;-87
2021/04/06 07:30:18;;;;;;;14.93;9.02;;;;;;;8.71;55.15;93629.13;2986828;39;20040;-87
2021/04/06 07:32:20;;;;;;;11.98;9.27;;;;;;;8.74;55.72;93623.59;2979802;40;20041;-85
2021/04/06 07:34:22;;;;;;;17.05;9.35;;;;;;;8.77;55.72;93620.63;2974526;40;20036;-88
2021/04/06 07:36:25;;;;;;;11.80;8.43;;;;;;;8.33;56.14;93616.78;2990603;39;20064;-87
2021/04/06 07:38:26;;;;;;;14.57;9.05;;;;;;;7.66;57.77;93619.03;2988285;39;20051;-87
2021/04/06 07:40:31;;;;;;;10.70;9.48;;;;;;;7.69;58.38;93619.50;2984219;39;20075;-72
2021/04/06 07:42:33;;;;;;;11.65;8.85;;;;;;;7.46;58.48;93616.78;2966870;39;20063;-74
2021/04/06 07:44:36;;;;;;;20.50;12.50;;;;;;;7.58;58.25;93609.44;2979326;39;20275;-73
2021/04/06 07:46:41;;;;;;;14.40;9.27;;;;;;;7.85;58.15;93623.03;2966656;39;20048;-74
2021/04/06 07:48:48;;;;;;;12.27;9.05;;;;;;;7.98;57.87;93618.13;2971287;39;20467;-74
2021/04/06 07:50:50;;;;;;;15.07;9.45;;;;;;;7.90;57.84;93613.72;2982441;39;20091;-72
2021/04/06 07:53:21;;;;;;;15.57;9.23;;;;;;;7.48;59.09;93612.22;2976928;39;20140;-72
2021/04/06 07:55:41;;;;;;;22.92;12.77;;;;;;;7.53;59.00;93603.94;2973005;40;20091;-72
2021/04/06 07:57:44;;;;;;;15.43;10.48;;;;;;;7.42;59.39;93589.47;2981816;39;20440;-73
2021/04/06 07:59:51;;;;;;;13.57;10.00;;;;;;;7.52;59.43;93600.50;2983750;39;20144;-73
2021/04/06 08:01:55;;;;;;;14.38;10.80;;;;;;;7.74;58.92;93598.13;2988443;39;20194;-86
2021/04/06 08:04:04;;;;;;;18.63;11.20;;;;;;;7.96;58.55;93600.03;2989869;39;20036;-87
2021/04/06 08:06:25;;;;;;;17.48;11.75;;;;;;;7.89;58.76;93591.22;2987497;39;20036;-85
2021/04/06 08:08:34;;;;;;;18.83;12.52;;;;;;;8.14;58.12;93591.94;2973288;40;20039;-87
2021/04/06 08:10:35;;;;;;;19.00;10.90;;;;;;;8.44;57.74;93583.50;2979164;40;20044;-85
2021/04/06 08:12:38;;;;;;;16.90;11.27;;;;;;;8.69;56.86;93578.88;2979714;39;20036;-87
2021/04/06 08:14:50;;;;;;;14.13;10.32;;;;;;;8.75;56.07;93565.94;2970792;40;20129;-87
2021/04/06 08:17:26;;;;;;;17.38;11.13;;;;;;;8.47;56.64;93570.88;2980582;39;20051;-88
2021/04/06 08:19:30;;;;;;;20.42;11.18;;;;;;;8.61;56.95;93566.72;2983359;39;20064;-87
2021/04/06 08:21:35;;;;;;;17.50;10.73;;;;;;;8.80;56.01;93555.00;2981502;39;20044;-85
2021/04/06 08:23:44;;;;;;;15.98;10.68;;;;;;;8.52;57.11;93552.94;2978376;40;20051;-86
2021/04/06 08:25:47;;;;;;;13.70;10.30;;;;;;;8.69;56.75;93553.63;2979949;40;20032;-87
2021/04/06 08:27:50;;;;;;;19.67;10.83;;;;;;;8.89;55.62;93548.72;2979573;40;20047;-87
2021/04/06 08:30:26;;;;;;;20.23;10.52;;;;;;;9.15;55.95;93537.03;2980129;40;20044;-86
2021/04/06 08:32:27;;;;;;;14.00;10.43;;;;;;;9.49;55.31;93535.72;2983232;39;20335;-87
2021/04/06 08:34:29;;;;;;;18.52;11.55;;;;;;;9.57;53.91;93531.19;2990046;39;20036;-87
2021/04/06 08:36:31;;;;;;;16.38;11.25;;;;;;;9.45;55.13;93526.59;2986754;39;20040;-87
2021/04/06 08:38:32;;;;;;;25.05;14.77;;;;;;;9.67;54.71;93524.88;2982038;39;20397;-86
2021/04/06 08:40:53;;;;;;;16.30;11.15;;;;;;;9.55;54.57;93519.28;2981023;39;20112;-86
2021/04/06 08:42:55;;;;;;;14.60;10.50;;;;;;;9.56;53.99;93513.88;2984091;39;20407;-85
2021/04/06 08:44:58;;;;;;;17.65;10.38;;;;;;;9.40;54.30;93514.09;2989603;39;20120;-85
2021/04/06 08:47:00;;;;;;;18.77;11.35;;;;;;;9.17;55.84;93512.34;2981782;40;20036;-87
2021/04/06 08:49:02;;;;;;;14.88;10.85;;;;;;;9.60;56.10;93507.28;2996640;39;20159;-87
2021/04/06 08:51:30;;;;;;;15.20;11.43;;;;;;;9.98;54.72;93501.91;2980885;40;20422;-87
2021/04/06 08:53:32;;;;;;;19.77;11.32;;;;;;;9.87;53.96;93499.75;2989150;39;20028;-85
2021/04/06 08:55:33;;;;;;;15.30;11.15;;;;;;;10.02;53.40;93505.78;2980666;39;20028;-86
2021/04/06 08:57:34;;;;;;;14.32;11.00;;;;;;;10.22;53.17;93495.50;2989284;39;20434;-88
2021/04/06 08:59:39;;;;;;;19.73;10.65;;;;;;;10.55;53.02;93502.09;2993393;39;20032;-90
2021/04/06 09:01:42;;;;;;;15.02;10.75;;;;;;;10.51;51.84;93493.78;2978137;39;20043;-85
2021/04/06 09:03:44;;;;;;;13.85;10.00;;;;;;;10.18;52.31;93496.88;2984050;39;20094;-83
2021/04/06 09:05:45;;;;;;;19.20;10.75;;;;;;;9.71;53.87;93500.78;2988235;39;20155;-72
2021/04/06 09:07:46;;;;;;;12.27;10.40;;;;;;;9.94;54.15;93489.38;2974706;39;20047;-73
2021/04/06 09:09:50;;;;;;;16.23;10.25;;;;;;;10.10;53.50;93493.56;2973320;39;20055;-73
2021/04/06 09:11:53;;;;;;;14.77;10.73;;;;;;;10.33;52.81;93483.78;2983384;39;20083;-73
2021/04/06 09:13:55;;;;;;;17.20;10.45;;;;;;;10.11;53.23;93490.78;2974575;39;20414;-76
2021/04/06 09:15:59;;;;;;;17.88;10.48;;;;;;;10.40;53.62;93486.44;2991622;39;20083;-71
2021/04/06 09:18:02;;;;;;;15.80;10.18;;;;;;;10.65;53.34;93485.06;2968515;39;20071;-74
2021/04/06 09:20:08;;;;;;;13.38;9.38;;;;;;;10.68;52.21;93475.19;2986884;39;20035;-73
2021/04/06 09:22:12;;;;;;;12.02;9.23;;;;;;;10.36;52.65;93477.34;2978926;39;20080;-72
2021/04/06 09:24:15;;;;;;;14.95;9.93;;;;;;;9.94;54.06;93474.50;2984105;39;20067;-72
2021/04/06 09:26:16;;;;;;;11.97;9.00;;;;;;;10.15;53.92;93459.78;2985721;39;20051;-73
2021/04/06 09:28:17;;;;;;;18.35;9.68;;;;;;;10.58;53.38;93471.09;2977825;39;20048;-86
2021/04/06 09:30:31;;;;;;;24.15;15.23;;;;;;;10.76;53.00;93459.34;2979183;39;20052;-73
2021/04/06 09:32:36;;;;;;;20.20;10.10;;;;;;;10.91;51.77;93454.81;2989486;39;20055;-73
2021/04/06 09:34:39;;;;;;;17.08;9.63;;;;;;;10.96;52.16;93446.38;2979340;39;20105;-74
2021/04/06 09:36:43;;;;;;;14.43;9.27;;;;;;;11.06;51.27;93445.03;2987010;39;20052;-73
2021/04/06 09:38:45;;;;;;;15.63;9.40;;;;;;;11.18;51.16;93450.53;2982828;39;20055;-73
2021/04/06 09:40:46;;;;;;;25.35;9.73;;;;;;;11.44;50.65;93446.44;2966798;39;20055;-72